sensor_id;sensor_type;location;lat;lon;timestamp;temperature;humidity
40660;DHT22;26753;45.544;9.232;2023-02-28T00:20:41;5.90;99.90
40660;DHT22;26753;45.544;9.232;2023-02-28T00:25:33;8.90;99.90
40660;DHT22;26753;45.544;9.232;2023-02-28T00:30:30;9.10;99.90
40660;DHT22;26753;45.544;9.232;2023-02-28T00:54:53;9.80;99.90
40660;DHT22;26753;45.544;9.232;2023-02-28T00:57:22;9.20;99.90
40660;DHT22;26753;45.544;9.232;2023-02-28T01:02:14;9.80;99.90
40660;DHT22;26753;45.544;9.232;2023-02-28T01:04:45;7.90;99.90
40660;DHT22;26753;45.544;9.232;2023-02-28T01:07:11;4.30;99.90
40660;DHT22;26753;45.544;9.232;2023-02-28T01:09:48;6.00;99.90
40660;DHT22;26753;45.544;9.232;2023-02-28T01:12:28;8.70;99.90
40660;DHT22;26753;45.544;9.232;2023-02-28T01:14:54;6.10;99.90
40660;DHT22;26753;45.544;9.232;2023-02-28T01:17:23;7.40;99.90
40660;DHT22;26753;45.544;9.232;2023-02-28T01:29:46;10.00;99.90
40660;DHT22;26753;45.544;9.232;2023-02-28T02:11:48;6.80;99.90
40660;DHT22;26753;45.544;9.232;2023-02-28T02:17:10;9.30;99.90
40660;DHT22;26753;45.544;9.232;2023-02-28T03:01:21;5.20;99.90
40660;DHT22;26753;45.544;9.232;2023-02-28T08:47:37;10.50;99.90
40660;DHT22;26753;45.544;9.232;2023-02-28T08:52:28;6.20;99.90
40660;DHT22;26753;45.544;9.232;2023-02-28T08:59:51;9.60;99.90
40660;DHT22;26753;45.544;9.232;2023-02-28T09:02:17;8.10;99.90
40660;DHT22;26753;45.544;9.232;2023-02-28T09:07:11;7.90;99.90
40660;DHT22;26753;45.544;9.232;2023-02-28T09:12:03;9.40;99.90
40660;DHT22;26753;45.544;9.232;2023-02-28T09:14:28;10.50;99.90
40660;DHT22;26753;45.544;9.232;2023-02-28T09:21:48;8.60;99.90
40660;DHT22;26753;45.544;9.232;2023-02-28T09:24:16;9.50;99.90
40660;DHT22;26753;45.544;9.232;2023-02-28T09:26:43;9.40;99.90
40660;DHT22;26753;45.544;9.232;2023-02-28T09:31:35;9.50;99.90
40660;DHT22;26753;45.544;9.232;2023-02-28T09:36:29;9.30;99.90
40660;DHT22;26753;45.544;9.232;2023-02-28T09:38:58;10.10;99.90
40660;DHT22;26753;45.544;9.232;2023-02-28T09:41:25;8.60;99.90
40660;DHT22;26753;45.544;9.232;2023-02-28T09:43:56;9.60;99.90
40660;DHT22;26753;45.544;9.232;2023-02-28T09:49:19;8.20;99.90
40660;DHT22;26753;45.544;9.232;2023-02-28T09:54:18;9.40;99.90
40660;DHT22;26753;45.544;9.232;2023-02-28T09:56:48;8.60;99.90
40660;DHT22;26753;45.544;9.232;2023-02-28T10:05:07;9.30;99.90
40660;DHT22;26753;45.544;9.232;2023-02-28T10:10:27;9.10;99.90
40660;DHT22;26753;45.544;9.232;2023-02-28T10:15:24;11.90;99.90
40660;DHT22;26753;45.544;9.232;2023-02-28T10:17:53;11.80;99.90
40660;DHT22;26753;45.544;9.232;2023-02-28T10:20:23;13.30;99.90
40660;DHT22;26753;45.544;9.232;2023-02-28T10:22:58;10.10;99.90
40660;DHT22;26753;45.544;9.232;2023-02-28T10:25:27;11.40;99.90
40660;DHT22;26753;45.544;9.232;2023-02-28T10:28:17;10.40;99.90
40660;DHT22;26753;45.544;9.232;2023-02-28T10:30:49;13.80;99.90
40660;DHT22;26753;45.544;9.232;2023-02-28T10:35:44;13.70;99.90
40660;DHT22;26753;45.544;9.232;2023-02-28T10:38:14;12.10;99.90
40660;DHT22;26753;45.544;9.232;2023-02-28T10:40:41;13.70;99.90
40660;DHT22;26753;45.544;9.232;2023-02-28T10:45:38;13.20;99.90
40660;DHT22;26753;45.544;9.232;2023-02-28T10:48:05;13.50;99.90
40660;DHT22;26753;45.544;9.232;2023-02-28T10:50:36;12.70;99.90
40660;DHT22;26753;45.544;9.232;2023-02-28T10:55:32;13.00;99.90
40660;DHT22;26753;45.544;9.232;2023-02-28T11:00:59;14.20;99.90
40660;DHT22;26753;45.544;9.232;2023-02-28T11:03:29;13.50;99.90
40660;DHT22;26753;45.544;9.232;2023-02-28T11:08:21;13.00;99.90
40660;DHT22;26753;45.544;9.232;2023-02-28T11:10:48;13.70;99.90
40660;DHT22;26753;45.544;9.232;2023-02-28T11:13:17;13.20;99.90
40660;DHT22;26753;45.544;9.232;2023-02-28T11:15:49;11.80;99.90
40660;DHT22;26753;45.544;9.232;2023-02-28T11:18:23;12.80;99.90
40660;DHT22;26753;45.544;9.232;2023-02-28T11:20:52;13.90;99.90
40660;DHT22;26753;45.544;9.232;2023-02-28T11:23:18;13.20;99.90
40660;DHT22;26753;45.544;9.232;2023-02-28T11:25:49;12.40;99.90
40660;DHT22;26753;45.544;9.232;2023-02-28T11:33:55;15.60;98.60
40660;DHT22;26753;45.544;9.232;2023-02-28T11:36:22;14.30;98.10
40660;DHT22;26753;45.544;9.232;2023-02-28T11:38:49;15.60;96.30
40660;DHT22;26753;45.544;9.232;2023-02-28T11:41:19;16.40;96.20
40660;DHT22;26753;45.544;9.232;2023-02-28T11:51:35;14.90;96.70
40660;DHT22;26753;45.544;9.232;2023-02-28T11:56:36;14.20;95.20
40660;DHT22;26753;45.544;9.232;2023-02-28T12:01:38;16.00;95.50
40660;DHT22;26753;45.544;9.232;2023-02-28T12:07:09;16.30;93.70
40660;DHT22;26753;45.544;9.232;2023-02-28T12:12:19;16.60;92.70
40660;DHT22;26753;45.544;9.232;2023-02-28T12:14:56;17.30;92.10
40660;DHT22;26753;45.544;9.232;2023-02-28T12:27:43;18.30;87.50
40660;DHT22;26753;45.544;9.232;2023-02-28T12:32:37;17.80;86.00
40660;DHT22;26753;45.544;9.232;2023-02-28T12:35:11;18.20;84.80
40660;DHT22;26753;45.544;9.232;2023-02-28T12:37:43;18.60;83.50
40660;DHT22;26753;45.544;9.232;2023-02-28T12:40:13;20.80;80.90
40660;DHT22;26753;45.544;9.232;2023-02-28T12:42:45;23.60;75.50
40660;DHT22;26753;45.544;9.232;2023-02-28T12:45:13;24.90;69.10
40660;DHT22;26753;45.544;9.232;2023-02-28T12:47:42;26.10;65.60
40660;DHT22;26753;45.544;9.232;2023-02-28T12:50:10;29.40;61.40
40660;DHT22;26753;45.544;9.232;2023-02-28T12:52:46;29.20;56.50
40660;DHT22;26753;45.544;9.232;2023-02-28T13:00:36;24.10;58.20
40660;DHT22;26753;45.544;9.232;2023-02-28T13:14:03;28.10;55.50
40660;DHT22;26753;45.544;9.232;2023-02-28T13:16:46;30.00;54.10
40660;DHT22;26753;45.544;9.232;2023-02-28T13:19:19;32.20;53.60
40660;DHT22;26753;45.544;9.232;2023-02-28T13:21:45;33.10;50.70
40660;DHT22;26753;45.544;9.232;2023-02-28T13:24:11;34.30;49.80
40660;DHT22;26753;45.544;9.232;2023-02-28T13:29:30;35.80;48.10
40660;DHT22;26753;45.544;9.232;2023-02-28T13:34:31;34.80;45.00
40660;DHT22;26753;45.544;9.232;2023-02-28T13:39:56;28.60;49.20
40660;DHT22;26753;45.544;9.232;2023-02-28T13:49:55;24.00;54.20
40660;DHT22;26753;45.544;9.232;2023-02-28T13:52:43;27.30;52.70
40660;DHT22;26753;45.544;9.232;2023-02-28T14:05:39;34.10;47.20
40660;DHT22;26753;45.544;9.232;2023-02-28T14:10:37;35.30;45.30
40660;DHT22;26753;45.544;9.232;2023-02-28T14:15:54;35.70;43.30
40660;DHT22;26753;45.544;9.232;2023-02-28T14:18:39;34.90;44.60
40660;DHT22;26753;45.544;9.232;2023-02-28T14:31:47;30.80;45.00
40660;DHT22;26753;45.544;9.232;2023-02-28T14:36:48;26.30;47.30
40660;DHT22;26753;45.544;9.232;2023-02-28T14:39:15;24.70;48.70
40660;DHT22;26753;45.544;9.232;2023-02-28T14:41:42;24.10;49.40
40660;DHT22;26753;45.544;9.232;2023-02-28T14:44:18;25.00;49.60
40660;DHT22;26753;45.544;9.232;2023-02-28T14:46:50;26.70;48.80
40660;DHT22;26753;45.544;9.232;2023-02-28T14:49:27;27.00;47.70
40660;DHT22;26753;45.544;9.232;2023-02-28T14:54:37;28.30;47.10
40660;DHT22;26753;45.544;9.232;2023-02-28T14:57:04;28.90;47.20
40660;DHT22;26753;45.544;9.232;2023-02-28T14:59:34;30.60;46.70
40660;DHT22;26753;45.544;9.232;2023-02-28T15:05:24;34.20;45.20
40660;DHT22;26753;45.544;9.232;2023-02-28T15:07:48;35.60;43.80
40660;DHT22;26753;45.544;9.232;2023-02-28T15:10:21;35.50;44.50
40660;DHT22;26753;45.544;9.232;2023-02-28T15:12:52;36.20;44.20
40660;DHT22;26753;45.544;9.232;2023-02-28T15:15:19;35.60;42.90
40660;DHT22;26753;45.544;9.232;2023-02-28T15:17:47;35.40;43.70
40660;DHT22;26753;45.544;9.232;2023-02-28T15:20:15;35.10;43.00
40660;DHT22;26753;45.544;9.232;2023-02-28T15:22:42;35.50;44.20
40660;DHT22;26753;45.544;9.232;2023-02-28T15:25:17;32.50;42.50
40660;DHT22;26753;45.544;9.232;2023-02-28T15:27:45;28.70;44.00
40660;DHT22;26753;45.544;9.232;2023-02-28T15:30:23;25.80;45.90
40660;DHT22;26753;45.544;9.232;2023-02-28T15:35:51;21.90;50.20
40660;DHT22;26753;45.544;9.232;2023-02-28T15:38:23;20.50;51.80
40660;DHT22;26753;45.544;9.232;2023-02-28T15:40:51;19.50;53.40
40660;DHT22;26753;45.544;9.232;2023-02-28T15:45:46;18.80;55.60
40660;DHT22;26753;45.544;9.232;2023-02-28T15:48:22;18.70;55.70
40660;DHT22;26753;45.544;9.232;2023-02-28T15:50:54;18.00;55.80
40660;DHT22;26753;45.544;9.232;2023-02-28T15:53:24;17.90;57.00
40660;DHT22;26753;45.544;9.232;2023-02-28T15:55:55;17.40;57.10
40660;DHT22;26753;45.544;9.232;2023-02-28T15:58:24;16.80;58.10
40660;DHT22;26753;45.544;9.232;2023-02-28T16:03:46;16.40;59.30
40660;DHT22;26753;45.544;9.232;2023-02-28T16:08:41;16.30;59.90
40660;DHT22;26753;45.544;9.232;2023-02-28T16:11:13;16.30;60.10
40660;DHT22;26753;45.544;9.232;2023-02-28T16:13:39;16.30;60.30
40660;DHT22;26753;45.544;9.232;2023-02-28T16:16:05;16.10;60.50
40660;DHT22;26753;45.544;9.232;2023-02-28T16:18:36;16.00;60.80
40660;DHT22;26753;45.544;9.232;2023-02-28T16:21:04;15.80;60.90
40660;DHT22;26753;45.544;9.232;2023-02-28T16:23:36;15.60;61.40
40660;DHT22;26753;45.544;9.232;2023-02-28T16:26:03;15.60;61.70
40660;DHT22;26753;45.544;9.232;2023-02-28T16:28:33;15.20;62.30
40660;DHT22;26753;45.544;9.232;2023-02-28T16:31:00;14.70;62.90
40660;DHT22;26753;45.544;9.232;2023-02-28T16:33:28;14.70;63.90
40660;DHT22;26753;45.544;9.232;2023-02-28T16:35:54;14.60;64.00
40660;DHT22;26753;45.544;9.232;2023-02-28T16:38:19;14.30;64.40
40660;DHT22;26753;45.544;9.232;2023-02-28T16:40:49;14.50;64.70
40660;DHT22;26753;45.544;9.232;2023-02-28T16:43:16;13.90;64.70
40660;DHT22;26753;45.544;9.232;2023-02-28T16:45:55;14.30;65.20
40660;DHT22;26753;45.544;9.232;2023-02-28T16:48:22;14.70;65.00
40660;DHT22;26753;45.544;9.232;2023-02-28T16:50:47;14.00;65.40
40660;DHT22;26753;45.544;9.232;2023-02-28T16:53:13;13.70;66.60
40660;DHT22;26753;45.544;9.232;2023-02-28T16:55:42;13.40;67.10
40660;DHT22;26753;45.544;9.232;2023-02-28T16:58:16;12.50;67.40
40660;DHT22;26753;45.544;9.232;2023-02-28T17:00:42;13.60;68.40
40660;DHT22;26753;45.544;9.232;2023-02-28T17:03:19;13.70;69.00
40660;DHT22;26753;45.544;9.232;2023-02-28T17:05:46;11.60;67.90
40660;DHT22;26753;45.544;9.232;2023-02-28T17:08:12;12.80;69.40
40660;DHT22;26753;45.544;9.232;2023-02-28T17:10:37;11.70;69.40
40660;DHT22;26753;45.544;9.232;2023-02-28T17:13:03;12.00;70.20
40660;DHT22;26753;45.544;9.232;2023-02-28T17:15:29;12.10;70.30
40660;DHT22;26753;45.544;9.232;2023-02-28T17:17:56;11.80;70.80
40660;DHT22;26753;45.544;9.232;2023-02-28T17:20:25;12.60;71.50
40660;DHT22;26753;45.544;9.232;2023-02-28T17:22:55;12.50;71.50
40660;DHT22;26753;45.544;9.232;2023-02-28T17:25:21;12.30;71.20
40660;DHT22;26753;45.544;9.232;2023-02-28T17:27:47;14.30;72.40
40660;DHT22;26753;45.544;9.232;2023-02-28T17:32:41;13.20;72.80
40660;DHT22;26753;45.544;9.232;2023-02-28T17:35:10;11.40;72.20
40660;DHT22;26753;45.544;9.232;2023-02-28T17:37:38;11.00;73.50
40660;DHT22;26753;45.544;9.232;2023-02-28T17:42:33;10.50;73.90
40660;DHT22;26753;45.544;9.232;2023-02-28T17:47:28;11.60;76.10
40660;DHT22;26753;45.544;9.232;2023-02-28T17:49:53;10.00;75.40
40660;DHT22;26753;45.544;9.232;2023-02-28T17:52:22;10.90;76.50
40660;DHT22;26753;45.544;9.232;2023-02-28T17:54:48;9.70;76.20
40660;DHT22;26753;45.544;9.232;2023-02-28T17:57:16;11.40;77.60
40660;DHT22;26753;45.544;9.232;2023-02-28T17:59:42;10.30;77.50
40660;DHT22;26753;45.544;9.232;2023-02-28T18:02:09;11.30;78.20
40660;DHT22;26753;45.544;9.232;2023-02-28T18:04:37;10.00;77.80
40660;DHT22;26753;45.544;9.232;2023-02-28T18:07:03;10.40;78.30
40660;DHT22;26753;45.544;9.232;2023-02-28T18:09:28;10.20;79.00
40660;DHT22;26753;45.544;9.232;2023-02-28T18:11:55;13.10;80.70
40660;DHT22;26753;45.544;9.232;2023-02-28T18:16:48;10.70;82.00
40660;DHT22;26753;45.544;9.232;2023-02-28T18:19:14;10.60;84.00
40660;DHT22;26753;45.544;9.232;2023-02-28T18:21:44;10.90;85.20
40660;DHT22;26753;45.544;9.232;2023-02-28T18:24:11;12.20;88.90
40660;DHT22;26753;45.544;9.232;2023-02-28T18:26:38;10.50;88.90
40660;DHT22;26753;45.544;9.232;2023-02-28T18:29:04;10.80;90.70
40660;DHT22;26753;45.544;9.232;2023-02-28T18:31:29;11.60;91.60
40660;DHT22;26753;45.544;9.232;2023-02-28T18:33:56;9.60;92.00
40660;DHT22;26753;45.544;9.232;2023-02-28T18:36:25;11.80;93.70
40660;DHT22;26753;45.544;9.232;2023-02-28T18:43:46;11.10;94.80
40660;DHT22;26753;45.544;9.232;2023-02-28T18:46:12;9.70;94.60
40660;DHT22;26753;45.544;9.232;2023-02-28T18:48:41;10.00;94.80
40660;DHT22;26753;45.544;9.232;2023-02-28T18:51:10;10.80;96.00
40660;DHT22;26753;45.544;9.232;2023-02-28T18:53:36;11.00;97.00
40660;DHT22;26753;45.544;9.232;2023-02-28T18:56:09;11.50;97.70
40660;DHT22;26753;45.544;9.232;2023-02-28T19:01:17;10.70;98.70
40660;DHT22;26753;45.544;9.232;2023-02-28T19:03:43;10.00;99.40
40660;DHT22;26753;45.544;9.232;2023-02-28T19:06:09;9.90;99.40
40660;DHT22;26753;45.544;9.232;2023-02-28T19:08:35;10.00;99.90
40660;DHT22;26753;45.544;9.232;2023-02-28T19:11:10;11.40;99.90
40660;DHT22;26753;45.544;9.232;2023-02-28T19:13:37;9.00;99.90
40660;DHT22;26753;45.544;9.232;2023-02-28T19:16:03;9.40;99.90
40660;DHT22;26753;45.544;9.232;2023-02-28T19:18:29;10.70;99.90
40660;DHT22;26753;45.544;9.232;2023-02-28T19:23:20;9.20;99.90
40660;DHT22;26753;45.544;9.232;2023-02-28T19:25:46;8.70;99.90
40660;DHT22;26753;45.544;9.232;2023-02-28T19:28:14;11.10;99.90
40660;DHT22;26753;45.544;9.232;2023-02-28T19:30:44;9.50;99.90
40660;DHT22;26753;45.544;9.232;2023-02-28T19:35:38;9.30;99.90
40660;DHT22;26753;45.544;9.232;2023-02-28T19:38:04;9.40;99.90
40660;DHT22;26753;45.544;9.232;2023-02-28T19:40:29;9.00;99.90
40660;DHT22;26753;45.544;9.232;2023-02-28T19:42:55;9.60;99.90
40660;DHT22;26753;45.544;9.232;2023-02-28T19:45:20;9.30;99.90
40660;DHT22;26753;45.544;9.232;2023-02-28T19:47:46;9.10;99.90
40660;DHT22;26753;45.544;9.232;2023-02-28T19:52:40;10.10;99.90
40660;DHT22;26753;45.544;9.232;2023-02-28T19:55:07;9.00;99.90
40660;DHT22;26753;45.544;9.232;2023-02-28T19:57:34;9.30;99.90
40660;DHT22;26753;45.544;9.232;2023-02-28T20:04:51;9.30;99.90
40660;DHT22;26753;45.544;9.232;2023-02-28T20:09:48;6.70;99.90
40660;DHT22;26753;45.544;9.232;2023-02-28T20:12:13;7.90;99.90
40660;DHT22;26753;45.544;9.232;2023-02-28T20:14:40;9.70;99.90
40660;DHT22;26753;45.544;9.232;2023-02-28T20:17:06;9.00;99.90
40660;DHT22;26753;45.544;9.232;2023-02-28T20:19:32;7.90;99.90
40660;DHT22;26753;45.544;9.232;2023-02-28T20:21:57;8.60;99.90
40660;DHT22;26753;45.544;9.232;2023-02-28T20:24:25;9.30;99.90
40660;DHT22;26753;45.544;9.232;2023-02-28T20:26:54;8.40;99.90
40660;DHT22;26753;45.544;9.232;2023-02-28T20:29:21;6.20;99.90
40660;DHT22;26753;45.544;9.232;2023-02-28T20:31:47;8.20;99.90
40660;DHT22;26753;45.544;9.232;2023-02-28T20:34:19;9.90;99.90
40660;DHT22;26753;45.544;9.232;2023-02-28T20:36:47;9.30;99.90
40660;DHT22;26753;45.544;9.232;2023-02-28T20:44:05;9.10;99.90
40660;DHT22;26753;45.544;9.232;2023-02-28T20:48:58;8.60;99.90
40660;DHT22;26753;45.544;9.232;2023-02-28T20:51:24;8.50;99.90
40660;DHT22;26753;45.544;9.232;2023-02-28T20:53:50;9.60;99.90
40660;DHT22;26753;45.544;9.232;2023-02-28T20:56:16;6.80;99.90
40660;DHT22;26753;45.544;9.232;2023-02-28T21:03:59;9.40;99.90
40660;DHT22;26753;45.544;9.232;2023-02-28T21:08:51;9.60;99.90
40660;DHT22;26753;45.544;9.232;2023-02-28T21:11:17;8.40;99.90
40660;DHT22;26753;45.544;9.232;2023-02-28T21:16:11;9.00;99.90
40660;DHT22;26753;45.544;9.232;2023-02-28T21:18:37;8.60;99.90
40660;DHT22;26753;45.544;9.232;2023-02-28T21:21:04;10.20;99.90
40660;DHT22;26753;45.544;9.232;2023-02-28T21:23:30;6.10;99.90
40660;DHT22;26753;45.544;9.232;2023-02-28T21:28:29;7.60;99.90
40660;DHT22;26753;45.544;9.232;2023-02-28T21:33:21;11.10;99.90
40660;DHT22;26753;45.544;9.232;2023-02-28T21:38:15;8.50;99.90
40660;DHT22;26753;45.544;9.232;2023-02-28T21:47:59;6.20;99.90
40660;DHT22;26753;45.544;9.232;2023-02-28T21:50:26;10.00;99.90
40660;DHT22;26753;45.544;9.232;2023-02-28T21:52:52;7.80;99.90
40660;DHT22;26753;45.544;9.232;2023-02-28T21:55:17;8.10;99.90
40660;DHT22;26753;45.544;9.232;2023-02-28T22:09:57;6.30;99.90
40660;DHT22;26753;45.544;9.232;2023-02-28T22:14:52;7.60;99.90
40660;DHT22;26753;45.544;9.232;2023-02-28T22:19:44;9.10;99.90
40660;DHT22;26753;45.544;9.232;2023-02-28T22:24:36;9.20;99.90
40660;DHT22;26753;45.544;9.232;2023-02-28T22:27:01;11.20;99.90
40660;DHT22;26753;45.544;9.232;2023-02-28T22:31:53;8.90;99.90
40660;DHT22;26753;45.544;9.232;2023-02-28T22:34:19;7.20;99.90
40660;DHT22;26753;45.544;9.232;2023-02-28T22:36:44;7.70;99.90
40660;DHT22;26753;45.544;9.232;2023-02-28T22:39:10;6.60;99.90
40660;DHT22;26753;45.544;9.232;2023-02-28T22:41:36;7.90;99.90
40660;DHT22;26753;45.544;9.232;2023-02-28T22:46:28;8.40;99.90
40660;DHT22;26753;45.544;9.232;2023-02-28T22:48:54;7.80;99.90
40660;DHT22;26753;45.544;9.232;2023-02-28T22:51:21;8.00;99.90
40660;DHT22;26753;45.544;9.232;2023-02-28T22:53:47;9.50;99.90
40660;DHT22;26753;45.544;9.232;2023-02-28T22:56:14;7.40;99.90
40660;DHT22;26753;45.544;9.232;2023-02-28T23:03:32;7.60;99.90
40660;DHT22;26753;45.544;9.232;2023-02-28T23:05:57;8.20;99.90
40660;DHT22;26753;45.544;9.232;2023-02-28T23:08:23;7.60;99.90
40660;DHT22;26753;45.544;9.232;2023-02-28T23:10:49;9.20;99.90
40660;DHT22;26753;45.544;9.232;2023-02-28T23:15:41;8.30;99.90
40660;DHT22;26753;45.544;9.232;2023-02-28T23:18:07;8.30;99.90
40660;DHT22;26753;45.544;9.232;2023-02-28T23:20:32;9.20;99.90
40660;DHT22;26753;45.544;9.232;2023-02-28T23:22:58;9.60;99.90
40660;DHT22;26753;45.544;9.232;2023-02-28T23:25:24;9.60;99.90
40660;DHT22;26753;45.544;9.232;2023-02-28T23:30:30;7.80;99.90
40660;DHT22;26753;45.544;9.232;2023-02-28T23:32:56;8.20;99.90
40660;DHT22;26753;45.544;9.232;2023-02-28T23:35:21;9.60;99.90
40660;DHT22;26753;45.544;9.232;2023-02-28T23:40:13;9.20;99.90
40660;DHT22;26753;45.544;9.232;2023-02-28T23:45:09;10.40;99.90
40660;DHT22;26753;45.544;9.232;2023-02-28T23:47:34;9.40;99.90
40660;DHT22;26753;45.544;9.232;2023-02-28T23:50:03;8.70;99.90
40660;DHT22;26753;45.544;9.232;2023-02-28T23:52:28;9.10;99.90
40660;DHT22;26753;45.544;9.232;2023-02-28T23:54:54;7.70;99.90
40660;DHT22;26753;45.544;9.232;2023-02-28T23:57:20;9.00;99.90
